N408RE PAFA-PAVE
Flight info
| Callsign | N408RE |
|---|---|
| Flight time | N/A |
| Altitude | 14000 |
| Route | DCT VENAE DCT |
| Aircraft | C408/M-SDFGRY/S |
Departure
| Time | 2026-04-25 09:39 |
|---|---|
| Airport | Fairbanks International Airport (PAFA) |
Arrival
| Time | N/A |
|---|---|
| Airport | Venetie Airport (PAVE) |
| Time | Latitude | Longitude | Altitude | Speed | Heading |
|---|---|---|---|---|---|
| 2026-04-25 09:37 | 65.19329 | -147.39064 | 11052 ft | 192 kts | 193° |
| 2026-04-25 09:38 | 65.18029 | -147.39740 | 11057 ft | 192 kts | 193° |
| 2026-04-25 09:38 | 65.16740 | -147.40407 | 11061 ft | 191 kts | 193° |
| 2026-04-25 09:38 | 65.15433 | -147.41077 | 11059 ft | 192 kts | 192° |
| 2026-04-25 09:38 | 65.14128 | -147.41749 | 11016 ft | 193 kts | 193° |
| 2026-04-25 09:39 | 65.12787 | -147.42442 | 10816 ft | 199 kts | 193° |
| 2026-04-25 09:39 | 65.11425 | -147.43146 | 10620 ft | 201 kts | 193° |
| 2026-04-25 09:39 | 65.10051 | -147.43851 | 10421 ft | 203 kts | 193° |
| 2026-04-25 09:40 | 65.07301 | -147.45263 | 10026 ft | 203 kts | 193° |
| 2026-04-25 09:40 | 65.05922 | -147.45971 | 9810 ft | 203 kts | 193° |
| 2026-04-25 09:40 | 65.04546 | -147.46675 | 9591 ft | 202 kts | 193° |
| 2026-04-25 09:40 | 65.03171 | -147.47376 | 9373 ft | 202 kts | 193° |
| 2026-04-25 09:41 | 65.01873 | -147.48585 | 9141 ft | 202 kts | 211° |
| 2026-04-25 09:41 | 65.00753 | -147.50593 | 8928 ft | 200 kts | 218° |
| 2026-04-25 09:41 | 64.99692 | -147.52586 | 8705 ft | 193 kts | 217° |
| 2026-04-25 09:41 | 64.98649 | -147.54535 | 8485 ft | 190 kts | 217° |
| 2026-04-25 09:42 | 64.97614 | -147.56459 | 8266 ft | 190 kts | 217° |
| 2026-04-25 09:42 | 64.96578 | -147.58398 | 8049 ft | 190 kts | 217° |
| 2026-04-25 09:42 | 64.95543 | -147.60324 | 7841 ft | 189 kts | 217° |
| 2026-04-25 09:42 | 64.94529 | -147.62226 | 7631 ft | 189 kts | 216° |
| 2026-04-25 09:43 | 64.93492 | -147.64150 | 7427 ft | 190 kts | 216° |
| 2026-04-25 09:43 | 64.92456 | -147.66075 | 7221 ft | 190 kts | 216° |
| 2026-04-25 09:43 | 64.91420 | -147.68001 | 7003 ft | 189 kts | 216° |
| 2026-04-25 09:43 | 64.90374 | -147.69936 | 6689 ft | 193 kts | 216° |
| 2026-04-25 09:44 | 64.89306 | -147.71910 | 6367 ft | 196 kts | 215° |
| 2026-04-25 09:44 | 64.88232 | -147.73900 | 6020 ft | 198 kts | 216° |
| 2026-04-25 09:44 | 64.87156 | -147.75905 | 5681 ft | 197 kts | 216° |
| 2026-04-25 09:44 | 64.86080 | -147.77887 | 5368 ft | 197 kts | 216° |
| 2026-04-25 09:45 | 64.85007 | -147.79868 | 5035 ft | 196 kts | 216° |
| 2026-04-25 09:45 | 64.83929 | -147.81848 | 4704 ft | 197 kts | 216° |
| 2026-04-25 09:45 | 64.82904 | -147.83745 | 4350 ft | 167 kts | 216° |
| 2026-04-25 09:45 | 64.82137 | -147.85606 | 3837 ft | 151 kts | 234° |
| 2026-04-25 09:46 | 64.81699 | -147.87750 | 3286 ft | 140 kts | 247° |
| 2026-04-25 09:46 | 64.81351 | -147.89825 | 2711 ft | 135 kts | 250° |
| 2026-04-25 09:46 | 64.81033 | -147.91884 | 2147 ft | 129 kts | 250° |
| 2026-04-25 09:46 | 64.80654 | -147.93784 | 1800 ft | 132 kts | 231° |
| 2026-04-25 09:47 | 64.79869 | -147.94727 | 1471 ft | 129 kts | 182° |
| 2026-04-25 09:47 | 64.79040 | -147.94103 | 1264 ft | 126 kts | 139° |
| 2026-04-25 09:47 | 64.78630 | -147.92286 | 1231 ft | 127 kts | 95° |
| 2026-04-25 09:47 | 64.79007 | -147.90569 | 999 ft | 129 kts | 34° |
| 2026-04-25 09:48 | 64.79706 | -147.89562 | 670 ft | 119 kts | 33° |
| 2026-04-25 09:48 | 64.80381 | -147.88382 | 478 ft | 118 kts | 38° |
| 2026-04-25 09:48 | 64.80904 | -147.87417 | 427 ft | 70 kts | 36° |
| 2026-04-25 09:48 | 64.81108 | -147.87048 | 431 ft | 15 kts | 37° |
| 2026-04-25 09:49 | 64.81163 | -147.86990 | 439 ft | 11 kts | 5° |
| 2026-04-25 09:49 | 64.81181 | -147.86989 | 439 ft | 0 kts | 351° |
| 2026-04-25 09:49 | 64.81186 | -147.86992 | 436 ft | 2 kts | 338° |
| 2026-04-25 09:49 | 64.81219 | -147.87076 | 431 ft | 14 kts | 296° |
| 2026-04-25 09:50 | 64.81231 | -147.87141 | 440 ft | 3 kts | 292° |
| 2026-04-25 09:50 | 64.81245 | -147.87219 | 440 ft | 5 kts | 293° |
| 2026-04-25 09:50 | 64.81247 | -147.87229 | 440 ft | 0 kts | 292° |